sensor_id;sensor_type;location;lat;lon;timestamp;P1;durP1;ratioP1;P2;durP2;ratioP2
52248;SDS011;38541;48.130;8.378;2022-09-01T00:01:26;12.38;;;8.45;;
52248;SDS011;38541;48.130;8.378;2022-09-01T00:03:53;17.40;;;10.63;;
52248;SDS011;38541;48.130;8.378;2022-09-01T00:06:27;17.70;;;10.10;;
52248;SDS011;38541;48.130;8.378;2022-09-01T00:08:57;12.65;;;9.77;;
52248;SDS011;38541;48.130;8.378;2022-09-01T00:11:26;16.95;;;10.82;;
52248;SDS011;38541;48.130;8.378;2022-09-01T00:13:55;13.82;;;8.93;;
52248;SDS011;38541;48.130;8.378;2022-09-01T00:16:22;11.88;;;7.78;;
52248;SDS011;38541;48.130;8.378;2022-09-01T00:18:50;12.70;;;8.57;;
52248;SDS011;38541;48.130;8.378;2022-09-01T00:21:20;15.98;;;9.55;;
52248;SDS011;38541;48.130;8.378;2022-09-01T00:23:49;11.93;;;7.70;;
52248;SDS011;38541;48.130;8.378;2022-09-01T00:26:16;11.73;;;7.80;;
52248;SDS011;38541;48.130;8.378;2022-09-01T00:28:42;10.23;;;7.47;;
52248;SDS011;38541;48.130;8.378;2022-09-01T00:31:09;9.50;;;7.57;;
52248;SDS011;38541;48.130;8.378;2022-09-01T00:33:36;9.85;;;7.28;;
52248;SDS011;38541;48.130;8.378;2022-09-01T00:36:04;10.13;;;7.88;;
52248;SDS011;38541;48.130;8.378;2022-09-01T00:38:31;10.73;;;7.60;;
52248;SDS011;38541;48.130;8.378;2022-09-01T00:40:58;13.57;;;8.93;;
52248;SDS011;38541;48.130;8.378;2022-09-01T00:43:40;10.75;;;8.23;;
52248;SDS011;38541;48.130;8.378;2022-09-01T00:46:16;15.23;;;9.40;;
52248;SDS011;38541;48.130;8.378;2022-09-01T00:48:55;16.98;;;9.10;;
52248;SDS011;38541;48.130;8.378;2022-09-01T00:51:27;13.13;;;8.88;;
52248;SDS011;38541;48.130;8.378;2022-09-01T00:53:56;13.00;;;9.18;;
52248;SDS011;38541;48.130;8.378;2022-09-01T00:56:26;11.68;;;9.05;;
52248;SDS011;38541;48.130;8.378;2022-09-01T00:58:53;11.15;;;8.02;;
52248;SDS011;38541;48.130;8.378;2022-09-01T01:01:20;11.27;;;8.88;;
52248;SDS011;38541;48.130;8.378;2022-09-01T01:03:48;16.10;;;9.07;;
52248;SDS011;38541;48.130;8.378;2022-09-01T01:06:15;9.70;;;7.32;;
52248;SDS011;38541;48.130;8.378;2022-09-01T01:08:45;13.07;;;8.20;;
52248;SDS011;38541;48.130;8.378;2022-09-01T01:11:27;9.75;;;7.85;;
52248;SDS011;38541;48.130;8.378;2022-09-01T01:13:58;8.70;;;7.65;;
52248;SDS011;38541;48.130;8.378;2022-09-01T01:16:31;8.35;;;7.55;;
52248;SDS011;38541;48.130;8.378;2022-09-01T01:18:57;8.98;;;7.65;;
52248;SDS011;38541;48.130;8.378;2022-09-01T01:21:25;7.13;;;6.43;;
52248;SDS011;38541;48.130;8.378;2022-09-01T01:26:56;8.38;;;7.50;;
52248;SDS011;38541;48.130;8.378;2022-09-01T01:29:26;9.02;;;8.13;;
52248;SDS011;38541;48.130;8.378;2022-09-01T01:31:57;7.72;;;7.00;;
52248;SDS011;38541;48.130;8.378;2022-09-01T01:34:24;7.88;;;6.97;;
52248;SDS011;38541;48.130;8.378;2022-09-01T01:36:50;7.57;;;6.85;;
52248;SDS011;38541;48.130;8.378;2022-09-01T01:39:19;7.00;;;6.30;;
52248;SDS011;38541;48.130;8.378;2022-09-01T01:41:51;7.25;;;6.55;;
52248;SDS011;38541;48.130;8.378;2022-09-01T01:44:22;6.45;;;5.85;;
52248;SDS011;38541;48.130;8.378;2022-09-01T01:46:56;6.30;;;5.57;;
52248;SDS011;38541;48.130;8.378;2022-09-01T01:49:24;7.25;;;6.55;;
52248;SDS011;38541;48.130;8.378;2022-09-01T01:51:54;9.85;;;6.78;;
52248;SDS011;38541;48.130;8.378;2022-09-01T01:54:27;7.38;;;6.68;;
52248;SDS011;38541;48.130;8.378;2022-09-01T01:56:57;8.13;;;6.32;;
52248;SDS011;38541;48.130;8.378;2022-09-01T01:59:25;10.07;;;7.03;;
52248;SDS011;38541;48.130;8.378;2022-09-01T02:01:54;8.88;;;7.05;;
52248;SDS011;38541;48.130;8.378;2022-09-01T02:04:21;8.63;;;7.38;;
52248;SDS011;38541;48.130;8.378;2022-09-01T02:06:51;8.75;;;7.80;;
52248;SDS011;38541;48.130;8.378;2022-09-01T02:09:19;9.55;;;7.28;;
52248;SDS011;38541;48.130;8.378;2022-09-01T02:11:46;9.00;;;7.85;;
52248;SDS011;38541;48.130;8.378;2022-09-01T02:14:14;10.52;;;8.80;;
52248;SDS011;38541;48.130;8.378;2022-09-01T02:16:46;8.75;;;7.25;;
52248;SDS011;38541;48.130;8.378;2022-09-01T02:19:13;10.20;;;9.00;;
52248;SDS011;38541;48.130;8.378;2022-09-01T02:21:44;8.35;;;7.30;;
52248;SDS011;38541;48.130;8.378;2022-09-01T02:24:19;8.30;;;7.38;;
52248;SDS011;38541;48.130;8.378;2022-09-01T02:26:47;15.15;;;8.60;;
52248;SDS011;38541;48.130;8.378;2022-09-01T02:29:19;8.98;;;7.15;;
52248;SDS011;38541;48.130;8.378;2022-09-01T02:31:52;8.50;;;7.70;;
52248;SDS011;38541;48.130;8.378;2022-09-01T02:34:20;11.80;;;8.38;;
52248;SDS011;38541;48.130;8.378;2022-09-01T02:36:51;9.73;;;8.15;;
52248;SDS011;38541;48.130;8.378;2022-09-01T02:39:23;7.75;;;7.03;;
52248;SDS011;38541;48.130;8.378;2022-09-01T02:41:53;7.25;;;6.55;;
52248;SDS011;38541;48.130;8.378;2022-09-01T02:44:25;8.57;;;7.78;;
52248;SDS011;38541;48.130;8.378;2022-09-01T02:46:54;10.05;;;8.13;;
52248;SDS011;38541;48.130;8.378;2022-09-01T02:49:22;8.02;;;7.22;;
52248;SDS011;38541;48.130;8.378;2022-09-01T02:51:51;11.27;;;7.60;;
52248;SDS011;38541;48.130;8.378;2022-09-01T02:54:20;7.03;;;6.32;;
52248;SDS011;38541;48.130;8.378;2022-09-01T02:56:50;22.85;;;7.10;;
52248;SDS011;38541;48.130;8.378;2022-09-01T02:59:22;7.45;;;6.75;;
52248;SDS011;38541;48.130;8.378;2022-09-01T03:01:55;13.20;;;7.72;;
52248;SDS011;38541;48.130;8.378;2022-09-01T03:04:23;12.23;;;7.10;;
52248;SDS011;38541;48.130;8.378;2022-09-01T03:06:50;8.95;;;7.60;;
52248;SDS011;38541;48.130;8.378;2022-09-01T03:09:20;8.00;;;6.80;;
52248;SDS011;38541;48.130;8.378;2022-09-01T03:11:48;11.88;;;6.63;;
52248;SDS011;38541;48.130;8.378;2022-09-01T03:14:17;10.88;;;7.85;;
52248;SDS011;38541;48.130;8.378;2022-09-01T03:16:45;12.55;;;7.10;;
52248;SDS011;38541;48.130;8.378;2022-09-01T03:19:12;8.20;;;7.40;;
52248;SDS011;38541;48.130;8.378;2022-09-01T03:21:41;19.77;;;8.10;;
52248;SDS011;38541;48.130;8.378;2022-09-01T03:24:14;10.10;;;6.97;;
52248;SDS011;38541;48.130;8.378;2022-09-01T03:26:44;14.57;;;7.28;;
52248;SDS011;38541;48.130;8.378;2022-09-01T03:29:16;13.80;;;7.30;;
52248;SDS011;38541;48.130;8.378;2022-09-01T03:31:43;7.72;;;6.68;;
52248;SDS011;38541;48.130;8.378;2022-09-01T03:34:10;14.70;;;7.93;;
52248;SDS011;38541;48.130;8.378;2022-09-01T03:36:43;11.68;;;7.60;;
52248;SDS011;38541;48.130;8.378;2022-09-01T03:39:22;11.73;;;7.22;;
52248;SDS011;38541;48.130;8.378;2022-09-01T03:41:49;12.40;;;7.65;;
52248;SDS011;38541;48.130;8.378;2022-09-01T03:44:15;12.40;;;8.35;;
52248;SDS011;38541;48.130;8.378;2022-09-01T03:46:43;12.73;;;7.25;;
52248;SDS011;38541;48.130;8.378;2022-09-01T03:49:10;15.55;;;7.07;;
52248;SDS011;38541;48.130;8.378;2022-09-01T03:51:42;7.15;;;6.45;;
52248;SDS011;38541;48.130;8.378;2022-09-01T03:54:11;6.55;;;5.95;;
52248;SDS011;38541;48.130;8.378;2022-09-01T03:56:37;6.47;;;5.82;;
52248;SDS011;38541;48.130;8.378;2022-09-01T03:59:09;9.05;;;6.13;;
52248;SDS011;38541;48.130;8.378;2022-09-01T04:01:43;7.32;;;6.00;;
52248;SDS011;38541;48.130;8.378;2022-09-01T04:04:11;6.05;;;5.50;;
52248;SDS011;38541;48.130;8.378;2022-09-01T04:06:40;6.93;;;6.32;;
52248;SDS011;38541;48.130;8.378;2022-09-01T04:09:09;6.57;;;5.70;;
52248;SDS011;38541;48.130;8.378;2022-09-01T04:11:38;6.38;;;5.72;;
52248;SDS011;38541;48.130;8.378;2022-09-01T04:14:12;7.15;;;6.45;;
52248;SDS011;38541;48.130;8.378;2022-09-01T04:16:40;7.75;;;6.28;;
52248;SDS011;38541;48.130;8.378;2022-09-01T04:21:56;6.47;;;5.88;;
52248;SDS011;38541;48.130;8.378;2022-09-01T04:24:30;6.93;;;5.70;;
52248;SDS011;38541;48.130;8.378;2022-09-01T04:26:59;5.93;;;5.40;;
52248;SDS011;38541;48.130;8.378;2022-09-01T04:29:32;5.63;;;5.15;;
52248;SDS011;38541;48.130;8.378;2022-09-01T04:32:07;5.95;;;5.45;;
52248;SDS011;38541;48.130;8.378;2022-09-01T04:34:41;5.50;;;4.97;;
52248;SDS011;38541;48.130;8.378;2022-09-01T04:37:11;6.28;;;5.25;;
52248;SDS011;38541;48.130;8.378;2022-09-01T04:39:51;5.50;;;5.00;;
52248;SDS011;38541;48.130;8.378;2022-09-01T04:42:23;5.68;;;5.07;;
52248;SDS011;38541;48.130;8.378;2022-09-01T04:44:53;6.05;;;5.10;;
52248;SDS011;38541;48.130;8.378;2022-09-01T04:47:22;5.30;;;4.90;;
52248;SDS011;38541;48.130;8.378;2022-09-01T04:50:02;5.60;;;5.00;;
52248;SDS011;38541;48.130;8.378;2022-09-01T04:52:42;6.72;;;6.13;;
52248;SDS011;38541;48.130;8.378;2022-09-01T04:55:19;6.13;;;5.35;;
52248;SDS011;38541;48.130;8.378;2022-09-01T04:57:46;6.00;;;5.40;;
52248;SDS011;38541;48.130;8.378;2022-09-01T05:00:16;6.57;;;4.97;;
52248;SDS011;38541;48.130;8.378;2022-09-01T05:02:51;6.40;;;5.80;;
52248;SDS011;38541;48.130;8.378;2022-09-01T05:05:22;6.38;;;5.78;;
52248;SDS011;38541;48.130;8.378;2022-09-01T05:07:49;6.18;;;5.60;;
52248;SDS011;38541;48.130;8.378;2022-09-01T05:10:21;6.25;;;5.68;;
52248;SDS011;38541;48.130;8.378;2022-09-01T05:13:10;6.60;;;5.60;;
52248;SDS011;38541;48.130;8.378;2022-09-01T05:15:39;4.97;;;4.57;;
52248;SDS011;38541;48.130;8.378;2022-09-01T05:18:12;6.78;;;6.10;;
52248;SDS011;38541;48.130;8.378;2022-09-01T05:20:41;6.45;;;5.85;;
52248;SDS011;38541;48.130;8.378;2022-09-01T05:23:09;6.85;;;5.70;;
52248;SDS011;38541;48.130;8.378;2022-09-01T05:25:39;5.97;;;5.47;;
52248;SDS011;38541;48.130;8.378;2022-09-01T05:28:07;6.55;;;5.95;;
52248;SDS011;38541;48.130;8.378;2022-09-01T05:30:35;5.20;;;4.78;;
52248;SDS011;38541;48.130;8.378;2022-09-01T05:33:04;5.60;;;4.93;;
52248;SDS011;38541;48.130;8.378;2022-09-01T05:35:37;5.90;;;5.40;;
52248;SDS011;38541;48.130;8.378;2022-09-01T05:38:06;6.03;;;5.53;;
52248;SDS011;38541;48.130;8.378;2022-09-01T05:40:41;6.53;;;5.93;;
52248;SDS011;38541;48.130;8.378;2022-09-01T05:43:12;6.80;;;5.57;;
52248;SDS011;38541;48.130;8.378;2022-09-01T05:45:40;6.43;;;5.82;;
52248;SDS011;38541;48.130;8.378;2022-09-01T05:48:30;5.15;;;4.75;;
52248;SDS011;38541;48.130;8.378;2022-09-01T05:51:06;6.75;;;6.05;;
52248;SDS011;38541;48.130;8.378;2022-09-01T05:53:54;6.75;;;5.82;;
52248;SDS011;38541;48.130;8.378;2022-09-01T05:56:34;6.65;;;6.05;;
52248;SDS011;38541;48.130;8.378;2022-09-01T05:59:09;6.10;;;5.60;;
52248;SDS011;38541;48.130;8.378;2022-09-01T06:01:56;6.03;;;5.43;;
52248;SDS011;38541;48.130;8.378;2022-09-01T06:04:24;6.22;;;5.55;;
52248;SDS011;38541;48.130;8.378;2022-09-01T06:06:55;6.43;;;5.82;;
52248;SDS011;38541;48.130;8.378;2022-09-01T06:09:37;6.72;;;6.00;;
52248;SDS011;38541;48.130;8.378;2022-09-01T06:12:05;6.85;;;6.18;;
52248;SDS011;38541;48.130;8.378;2022-09-01T06:14:32;7.18;;;6.47;;
52248;SDS011;38541;48.130;8.378;2022-09-01T06:16:59;6.85;;;6.15;;
52248;SDS011;38541;48.130;8.378;2022-09-01T06:19:27;6.25;;;5.65;;
52248;SDS011;38541;48.130;8.378;2022-09-01T06:21:57;7.55;;;6.15;;
52248;SDS011;38541;48.130;8.378;2022-09-01T06:24:25;7.03;;;6.30;;
52248;SDS011;38541;48.130;8.378;2022-09-01T06:26:53;7.05;;;6.32;;
52248;SDS011;38541;48.130;8.378;2022-09-01T06:29:20;6.85;;;6.18;;
52248;SDS011;38541;48.130;8.378;2022-09-01T06:31:48;6.88;;;5.80;;
52248;SDS011;38541;48.130;8.378;2022-09-01T06:34:19;5.85;;;5.35;;
52248;SDS011;38541;48.130;8.378;2022-09-01T06:36:46;5.80;;;5.28;;
52248;SDS011;38541;48.130;8.378;2022-09-01T06:39:15;7.53;;;6.45;;
52248;SDS011;38541;48.130;8.378;2022-09-01T06:41:49;6.53;;;5.65;;
52248;SDS011;38541;48.130;8.378;2022-09-01T06:44:22;6.88;;;6.15;;
52248;SDS011;38541;48.130;8.378;2022-09-01T06:47:00;6.43;;;5.85;;
52248;SDS011;38541;48.130;8.378;2022-09-01T06:49:27;6.95;;;5.90;;
52248;SDS011;38541;48.130;8.378;2022-09-01T06:52:07;7.53;;;6.70;;
52248;SDS011;38541;48.130;8.378;2022-09-01T06:54:34;6.32;;;5.72;;
52248;SDS011;38541;48.130;8.378;2022-09-01T06:57:04;5.25;;;4.80;;
52248;SDS011;38541;48.130;8.378;2022-09-01T06:59:52;6.35;;;5.75;;
52248;SDS011;38541;48.130;8.378;2022-09-01T07:02:19;5.53;;;5.03;;
52248;SDS011;38541;48.130;8.378;2022-09-01T07:05:11;6.18;;;5.40;;
52248;SDS011;38541;48.130;8.378;2022-09-01T07:08:02;8.68;;;5.35;;
52248;SDS011;38541;48.130;8.378;2022-09-01T07:10:55;6.05;;;5.50;;
52248;SDS011;38541;48.130;8.378;2022-09-01T07:13:44;6.10;;;5.53;;
52248;SDS011;38541;48.130;8.378;2022-09-01T07:16:33;5.07;;;4.60;;
52248;SDS011;38541;48.130;8.378;2022-09-01T07:19:16;4.95;;;4.55;;
52248;SDS011;38541;48.130;8.378;2022-09-01T07:22:01;5.15;;;4.65;;
52248;SDS011;38541;48.130;8.378;2022-09-01T07:24:49;5.82;;;5.00;;
52248;SDS011;38541;48.130;8.378;2022-09-01T07:27:51;5.53;;;4.95;;
52248;SDS011;38541;48.130;8.378;2022-09-01T07:30:21;4.80;;;4.40;;
52248;SDS011;38541;48.130;8.378;2022-09-01T07:32:50;5.07;;;4.60;;
52248;SDS011;38541;48.130;8.378;2022-09-01T07:35:39;4.97;;;4.55;;
52248;SDS011;38541;48.130;8.378;2022-09-01T07:38:27;4.40;;;4.00;;
52248;SDS011;38541;48.130;8.378;2022-09-01T07:41:16;4.10;;;3.70;;
52248;SDS011;38541;48.130;8.378;2022-09-01T07:44:22;4.72;;;4.32;;
52248;SDS011;38541;48.130;8.378;2022-09-01T07:47:15;5.03;;;4.30;;
52248;SDS011;38541;48.130;8.378;2022-09-01T07:49:45;4.40;;;3.92;;
52248;SDS011;38541;48.130;8.378;2022-09-01T07:55:01;4.25;;;3.85;;
52248;SDS011;38541;48.130;8.378;2022-09-01T07:57:29;3.70;;;3.40;;
52248;SDS011;38541;48.130;8.378;2022-09-01T07:59:56;4.35;;;3.95;;
52248;SDS011;38541;48.130;8.378;2022-09-01T08:02:37;3.63;;;3.33;;
52248;SDS011;38541;48.130;8.378;2022-09-01T08:05:13;3.65;;;3.35;;
52248;SDS011;38541;48.130;8.378;2022-09-01T08:07:43;4.65;;;4.25;;
52248;SDS011;38541;48.130;8.378;2022-09-01T08:10:23;4.60;;;3.67;;
52248;SDS011;38541;48.130;8.378;2022-09-01T08:12:50;3.88;;;3.55;;
52248;SDS011;38541;48.130;8.378;2022-09-01T08:15:25;4.40;;;4.00;;
52248;SDS011;38541;48.130;8.378;2022-09-01T08:18:12;4.18;;;3.78;;
52248;SDS011;38541;48.130;8.378;2022-09-01T08:20:41;3.88;;;3.53;;
52248;SDS011;38541;48.130;8.378;2022-09-01T08:23:32;4.10;;;3.75;;
52248;SDS011;38541;48.130;8.378;2022-09-01T08:26:08;3.60;;;3.30;;
52248;SDS011;38541;48.130;8.378;2022-09-01T08:28:37;4.07;;;3.72;;
52248;SDS011;38541;48.130;8.378;2022-09-01T08:31:14;4.63;;;3.17;;
52248;SDS011;38541;48.130;8.378;2022-09-01T08:33:43;3.65;;;3.35;;
52248;SDS011;38541;48.130;8.378;2022-09-01T08:36:13;4.30;;;3.95;;
52248;SDS011;38541;48.130;8.378;2022-09-01T08:38:48;3.90;;;3.60;;
52248;SDS011;38541;48.130;8.378;2022-09-01T08:41:24;3.92;;;3.63;;
52248;SDS011;38541;48.130;8.378;2022-09-01T08:44:34;3.72;;;3.42;;
52248;SDS011;38541;48.130;8.378;2022-09-01T08:47:09;3.70;;;3.40;;
52248;SDS011;38541;48.130;8.378;2022-09-01T08:55:38;3.35;;;3.05;;
52248;SDS011;38541;48.130;8.378;2022-09-01T08:58:10;3.60;;;3.33;;
52248;SDS011;38541;48.130;8.378;2022-09-01T09:01:03;3.67;;;3.38;;
52248;SDS011;38541;48.130;8.378;2022-09-01T09:04:01;4.55;;;3.42;;
52248;SDS011;38541;48.130;8.378;2022-09-01T09:06:44;3.20;;;2.90;;
52248;SDS011;38541;48.130;8.378;2022-09-01T09:09:20;3.15;;;2.85;;
52248;SDS011;38541;48.130;8.378;2022-09-01T09:12:02;3.30;;;3.00;;
52248;SDS011;38541;48.130;8.378;2022-09-01T09:17:17;3.22;;;2.92;;
52248;SDS011;38541;48.130;8.378;2022-09-01T09:19:48;3.45;;;3.15;;
52248;SDS011;38541;48.130;8.378;2022-09-01T09:22:16;3.05;;;2.85;;
52248;SDS011;38541;48.130;8.378;2022-09-01T09:24:47;3.40;;;3.10;;
52248;SDS011;38541;48.130;8.378;2022-09-01T09:29:56;2.60;;;2.40;;
52248;SDS011;38541;48.130;8.378;2022-09-01T09:35:49;2.65;;;2.45;;
52248;SDS011;38541;48.130;8.378;2022-09-01T09:38:20;3.75;;;2.78;;
52248;SDS011;38541;48.130;8.378;2022-09-01T09:43:49;3.40;;;3.10;;
52248;SDS011;38541;48.130;8.378;2022-09-01T09:51:43;2.67;;;2.47;;
52248;SDS011;38541;48.130;8.378;2022-09-01T09:56:41;2.95;;;2.75;;
52248;SDS011;38541;48.130;8.378;2022-09-01T10:02:16;2.67;;;2.47;;
52248;SDS011;38541;48.130;8.378;2022-09-01T10:04:53;2.53;;;2.33;;
52248;SDS011;38541;48.130;8.378;2022-09-01T10:07:23;2.47;;;2.30;;
52248;SDS011;38541;48.130;8.378;2022-09-01T10:09:58;2.45;;;2.28;;
52248;SDS011;38541;48.130;8.378;2022-09-01T10:12:27;3.25;;;2.67;;
52248;SDS011;38541;48.130;8.378;2022-09-01T10:15:00;2.40;;;2.20;;
52248;SDS011;38541;48.130;8.378;2022-09-01T10:17:39;2.72;;;2.53;;
52248;SDS011;38541;48.130;8.378;2022-09-01T10:20:12;2.78;;;2.58;;
52248;SDS011;38541;48.130;8.378;2022-09-01T10:22:43;3.05;;;2.80;;
52248;SDS011;38541;48.130;8.378;2022-09-01T10:25:12;2.88;;;2.67;;
52248;SDS011;38541;48.130;8.378;2022-09-01T10:27:44;3.00;;;2.80;;
52248;SDS011;38541;48.130;8.378;2022-09-01T10:30:14;2.60;;;2.40;;
52248;SDS011;38541;48.130;8.378;2022-09-01T10:32:49;3.28;;;2.70;;
52248;SDS011;38541;48.130;8.378;2022-09-01T10:35:29;2.78;;;2.58;;
52248;SDS011;38541;48.130;8.378;2022-09-01T10:37:58;3.20;;;2.90;;
52248;SDS011;38541;48.130;8.378;2022-09-01T10:46:08;2.88;;;2.67;;
52248;SDS011;38541;48.130;8.378;2022-09-01T10:48:52;3.10;;;2.72;;
52248;SDS011;38541;48.130;8.378;2022-09-01T10:54:03;3.67;;;2.85;;
52248;SDS011;38541;48.130;8.378;2022-09-01T10:56:46;2.60;;;2.40;;
52248;SDS011;38541;48.130;8.378;2022-09-01T11:02:08;2.88;;;2.67;;
52248;SDS011;38541;48.130;8.378;2022-09-01T11:18:15;3.28;;;2.97;;
52248;SDS011;38541;48.130;8.378;2022-09-01T11:20:52;2.35;;;2.15;;
52248;SDS011;38541;48.130;8.378;2022-09-01T11:23:24;2.50;;;2.30;;
52248;SDS011;38541;48.130;8.378;2022-09-01T11:25:57;2.25;;;2.15;;
52248;SDS011;38541;48.130;8.378;2022-09-01T11:28:44;2.40;;;2.20;;
52248;SDS011;38541;48.130;8.378;2022-09-01T11:31:23;2.00;;;1.90;;
52248;SDS011;38541;48.130;8.378;2022-09-01T11:34:01;2.20;;;2.10;;
52248;SDS011;38541;48.130;8.378;2022-09-01T11:44:46;2.95;;;2.30;;
52248;SDS011;38541;48.130;8.378;2022-09-01T11:47:48;2.17;;;2.08;;
52248;SDS011;38541;48.130;8.378;2022-09-01T11:50:22;1.98;;;1.88;;
52248;SDS011;38541;48.130;8.378;2022-09-01T11:52:59;2.42;;;2.22;;
52248;SDS011;38541;48.130;8.378;2022-09-01T11:55:49;2.30;;;2.20;;
52248;SDS011;38541;48.130;8.378;2022-09-01T12:00:54;1.98;;;1.83;;
52248;SDS011;38541;48.130;8.378;2022-09-01T12:03:24;2.33;;;2.20;;
52248;SDS011;38541;48.130;8.378;2022-09-01T12:05:54;2.83;;;2.10;;
52248;SDS011;38541;48.130;8.378;2022-09-01T12:08:27;1.80;;;1.70;;
52248;SDS011;38541;48.130;8.378;2022-09-01T12:11:02;2.40;;;2.30;;
52248;SDS011;38541;48.130;8.378;2022-09-01T12:13:30;1.83;;;1.73;;
52248;SDS011;38541;48.130;8.378;2022-09-01T12:15:58;2.20;;;2.00;;
52248;SDS011;38541;48.130;8.378;2022-09-01T12:18:44;2.15;;;2.05;;
52248;SDS011;38541;48.130;8.378;2022-09-01T12:21:21;2.30;;;2.10;;
52248;SDS011;38541;48.130;8.378;2022-09-01T12:23:50;1.70;;;1.60;;
52248;SDS011;38541;48.130;8.378;2022-09-01T12:26:19;1.70;;;1.60;;
52248;SDS011;38541;48.130;8.378;2022-09-01T12:28:50;1.50;;;1.40;;
52248;SDS011;38541;48.130;8.378;2022-09-01T12:31:19;1.30;;;1.30;;
52248;SDS011;38541;48.130;8.378;2022-09-01T12:33:49;1.50;;;1.40;;
52248;SDS011;38541;48.130;8.378;2022-09-01T12:36:19;1.70;;;1.60;;
52248;SDS011;38541;48.130;8.378;2022-09-01T12:38:53;1.60;;;1.48;;
52248;SDS011;38541;48.130;8.378;2022-09-01T12:41:44;1.70;;;1.60;;
52248;SDS011;38541;48.130;8.378;2022-09-01T12:47:01;1.77;;;1.67;;
52248;SDS011;38541;48.130;8.378;2022-09-01T12:49:42;1.65;;;1.55;;
52248;SDS011;38541;48.130;8.378;2022-09-01T12:54:45;1.80;;;1.70;;
52248;SDS011;38541;48.130;8.378;2022-09-01T12:57:24;1.60;;;1.50;;
52248;SDS011;38541;48.130;8.378;2022-09-01T13:02:46;1.83;;;1.73;;
52248;SDS011;38541;48.130;8.378;2022-09-01T13:05:19;1.65;;;1.55;;
52248;SDS011;38541;48.130;8.378;2022-09-01T13:07:58;1.67;;;1.58;;
52248;SDS011;38541;48.130;8.378;2022-09-01T13:13:05;1.70;;;1.60;;
52248;SDS011;38541;48.130;8.378;2022-09-01T13:15:33;1.95;;;1.85;;
52248;SDS011;38541;48.130;8.378;2022-09-01T13:18:01;1.60;;;1.50;;
52248;SDS011;38541;48.130;8.378;2022-09-01T13:20:28;2.13;;;1.70;;
52248;SDS011;38541;48.130;8.378;2022-09-01T13:22:55;1.90;;;1.80;;
52248;SDS011;38541;48.130;8.378;2022-09-01T13:25:22;2.10;;;1.95;;
52248;SDS011;38541;48.130;8.378;2022-09-01T13:27:49;1.95;;;1.73;;
52248;SDS011;38541;48.130;8.378;2022-09-01T13:30:18;1.70;;;1.60;;
52248;SDS011;38541;48.130;8.378;2022-09-01T13:32:48;1.60;;;1.50;;
52248;SDS011;38541;48.130;8.378;2022-09-01T13:35:35;1.80;;;1.70;;
52248;SDS011;38541;48.130;8.378;2022-09-01T13:38:01;1.55;;;1.30;;
52248;SDS011;38541;48.130;8.378;2022-09-01T13:40:28;1.40;;;1.30;;
52248;SDS011;38541;48.130;8.378;2022-09-01T13:42:55;1.90;;;1.80;;
52248;SDS011;38541;48.130;8.378;2022-09-01T13:45:22;2.08;;;1.60;;
52248;SDS011;38541;48.130;8.378;2022-09-01T13:47:50;1.75;;;1.65;;
52248;SDS011;38541;48.130;8.378;2022-09-01T13:50:38;1.75;;;1.65;;
52248;SDS011;38541;48.130;8.378;2022-09-01T13:53:25;1.48;;;1.38;;
52248;SDS011;38541;48.130;8.378;2022-09-01T13:55:51;6.50;;;1.77;;
52248;SDS011;38541;48.130;8.378;2022-09-01T13:58:18;1.55;;;1.45;;
52248;SDS011;38541;48.130;8.378;2022-09-01T14:00:46;1.85;;;1.75;;
52248;SDS011;38541;48.130;8.378;2022-09-01T14:03:15;1.60;;;1.50;;
52248;SDS011;38541;48.130;8.378;2022-09-01T14:05:45;1.52;;;1.42;;
52248;SDS011;38541;48.130;8.378;2022-09-01T14:08:15;1.75;;;1.63;;
52248;SDS011;38541;48.130;8.378;2022-09-01T14:10:46;1.98;;;1.60;;
52248;SDS011;38541;48.130;8.378;2022-09-01T14:13:16;2.50;;;1.80;;
52248;SDS011;38541;48.130;8.378;2022-09-01T14:15:43;1.70;;;1.60;;
52248;SDS011;38541;48.130;8.378;2022-09-01T14:18:09;1.90;;;1.80;;
52248;SDS011;38541;48.130;8.378;2022-09-01T14:20:37;1.63;;;1.52;;
52248;SDS011;38541;48.130;8.378;2022-09-01T14:23:07;2.30;;;1.67;;
52248;SDS011;38541;48.130;8.378;2022-09-01T14:25:36;1.70;;;1.60;;
52248;SDS011;38541;48.130;8.378;2022-09-01T14:28:08;2.03;;;1.92;;
52248;SDS011;38541;48.130;8.378;2022-09-01T14:30:34;2.00;;;1.90;;
52248;SDS011;38541;48.130;8.378;2022-09-01T14:33:01;1.77;;;1.67;;
52248;SDS011;38541;48.130;8.378;2022-09-01T14:35:29;1.70;;;1.60;;
52248;SDS011;38541;48.130;8.378;2022-09-01T14:38:00;3.70;;;1.70;;
52248;SDS011;38541;48.130;8.378;2022-09-01T14:40:27;1.92;;;1.70;;
52248;SDS011;38541;48.130;8.378;2022-09-01T14:42:54;1.83;;;1.73;;
52248;SDS011;38541;48.130;8.378;2022-09-01T14:45:23;2.03;;;1.70;;
52248;SDS011;38541;48.130;8.378;2022-09-01T14:47:52;1.90;;;1.80;;
52248;SDS011;38541;48.130;8.378;2022-09-01T14:50:22;2.03;;;1.92;;
52248;SDS011;38541;48.130;8.378;2022-09-01T14:52:50;1.77;;;1.67;;
52248;SDS011;38541;48.130;8.378;2022-09-01T14:55:19;1.80;;;1.70;;
52248;SDS011;38541;48.130;8.378;2022-09-01T14:57:47;1.60;;;1.50;;
52248;SDS011;38541;48.130;8.378;2022-09-01T15:00:14;2.53;;;1.90;;
52248;SDS011;38541;48.130;8.378;2022-09-01T15:02:42;1.55;;;1.45;;
52248;SDS011;38541;48.130;8.378;2022-09-01T15:05:10;1.30;;;1.30;;
52248;SDS011;38541;48.130;8.378;2022-09-01T15:07:38;1.60;;;1.50;;
52248;SDS011;38541;48.130;8.378;2022-09-01T15:10:06;1.88;;;1.77;;
52248;SDS011;38541;48.130;8.378;2022-09-01T15:12:35;1.60;;;1.50;;
52248;SDS011;38541;48.130;8.378;2022-09-01T15:15:02;2.10;;;1.60;;
52248;SDS011;38541;48.130;8.378;2022-09-01T15:17:29;1.63;;;1.52;;
52248;SDS011;38541;48.130;8.378;2022-09-01T15:19:55;1.90;;;1.30;;
52248;SDS011;38541;48.130;8.378;2022-09-01T15:22:42;1.70;;;1.60;;
52248;SDS011;38541;48.130;8.378;2022-09-01T15:25:08;1.80;;;1.70;;
52248;SDS011;38541;48.130;8.378;2022-09-01T15:27:35;1.50;;;1.42;;
52248;SDS011;38541;48.130;8.378;2022-09-01T15:30:06;1.67;;;1.48;;
52248;SDS011;38541;48.130;8.378;2022-09-01T15:32:40;1.50;;;1.40;;
52248;SDS011;38541;48.130;8.378;2022-09-01T15:35:07;1.50;;;1.40;;
52248;SDS011;38541;48.130;8.378;2022-09-01T15:37:34;1.35;;;1.30;;
52248;SDS011;38541;48.130;8.378;2022-09-01T15:40:01;1.95;;;1.85;;
52248;SDS011;38541;48.130;8.378;2022-09-01T15:42:29;1.95;;;1.85;;
52248;SDS011;38541;48.130;8.378;2022-09-01T15:44:56;2.00;;;1.80;;
52248;SDS011;38541;48.130;8.378;2022-09-01T15:47:22;1.67;;;1.58;;
52248;SDS011;38541;48.130;8.378;2022-09-01T15:49:49;1.73;;;1.63;;
52248;SDS011;38541;48.130;8.378;2022-09-01T15:52:15;1.50;;;1.40;;
52248;SDS011;38541;48.130;8.378;2022-09-01T15:54:42;1.60;;;1.50;;
52248;SDS011;38541;48.130;8.378;2022-09-01T15:57:08;1.60;;;1.50;;
52248;SDS011;38541;48.130;8.378;2022-09-01T15:59:35;1.55;;;1.45;;
52248;SDS011;38541;48.130;8.378;2022-09-01T16:02:05;1.52;;;1.42;;
52248;SDS011;38541;48.130;8.378;2022-09-01T16:04:32;1.70;;;1.60;;
52248;SDS011;38541;48.130;8.378;2022-09-01T16:06:59;3.10;;;1.65;;
52248;SDS011;38541;48.130;8.378;2022-09-01T16:09:25;2.00;;;1.80;;
52248;SDS011;38541;48.130;8.378;2022-09-01T16:11:52;1.90;;;1.80;;
52248;SDS011;38541;48.130;8.378;2022-09-01T16:14:19;1.90;;;1.80;;
52248;SDS011;38541;48.130;8.378;2022-09-01T16:16:50;1.73;;;1.60;;
52248;SDS011;38541;48.130;8.378;2022-09-01T16:24:52;2.10;;;2.00;;
52248;SDS011;38541;48.130;8.378;2022-09-01T16:27:26;1.75;;;1.65;;
52248;SDS011;38541;48.130;8.378;2022-09-01T16:30:03;1.60;;;1.50;;
52248;SDS011;38541;48.130;8.378;2022-09-01T16:32:34;1.85;;;1.75;;
52248;SDS011;38541;48.130;8.378;2022-09-01T16:35:03;1.70;;;1.60;;
52248;SDS011;38541;48.130;8.378;2022-09-01T16:40:39;2.25;;;2.05;;
52248;SDS011;38541;48.130;8.378;2022-09-01T16:46:00;1.75;;;1.58;;
52248;SDS011;38541;48.130;8.378;2022-09-01T16:48:32;2.80;;;2.60;;
52248;SDS011;38541;48.130;8.378;2022-09-01T16:51:12;1.67;;;1.58;;